Terminal Aerodrome Forecast
Issued by NWS Rapid City, SD

Home | Current Version | Previous Version | Text Only | Print | Product List | Glossary Off
Versions: 1 2 3 4 5 6 7 8 9 10 11 12 13 14 15 16 17 18

000
FTUS43 KUNR 162000 AAA
TAFRAP
TAF AMD
KRAP 162058Z 1621/1718 36015G22KT P6SM SCT040 BKN100
     FM170200 05010KT P6SM OVC015
     FM171200 16010KT P6SM SCT015=

USA.gov is the U.S. government's official web portal to all federal, state and local government web resources and services.